createdAt,value
2022-12-31T00:01:14.720Z,98899.40
2022-12-31T00:03:44.530Z,98896.80
2022-12-31T00:06:20.309Z,98898.00
2022-12-31T00:08:50.047Z,98901.80
2022-12-31T00:11:18.378Z,98909.00
2022-12-31T00:13:47.001Z,98904.40
2022-12-31T00:16:22.825Z,98910.80
2022-12-31T00:18:55.212Z,98911.20
2022-12-31T00:21:23.862Z,98911.00
2022-12-31T00:23:52.654Z,98922.00
2022-12-31T00:26:25.377Z,98915.60
2022-12-31T00:28:55.556Z,98912.20
2022-12-31T00:31:26.393Z,98919.80
2022-12-31T00:33:54.618Z,98922.80
2022-12-31T00:36:42.652Z,98928.00
2022-12-31T00:39:10.911Z,98931.00
2022-12-31T00:41:38.640Z,98934.60
2022-12-31T00:44:06.920Z,98929.80
2022-12-31T00:49:02.183Z,98931.80
2022-12-31T00:51:30.809Z,98939.60
2022-12-31T00:53:59.046Z,98937.80
2022-12-31T00:56:31.159Z,98937.80
2022-12-31T00:59:00.361Z,98930.40
2022-12-31T01:01:34.356Z,98941.40
2022-12-31T01:04:07.318Z,98941.40
2022-12-31T01:06:35.681Z,98949.40
2022-12-31T01:09:04.580Z,98943.00
2022-12-31T01:11:33.190Z,98939.20
2022-12-31T01:14:10.201Z,98940.40
2022-12-31T01:16:43.918Z,98934.00
2022-12-31T01:19:20.660Z,98933.20
2022-12-31T01:21:50.192Z,98939.20
2022-12-31T01:24:18.864Z,98936.20
2022-12-31T01:26:47.298Z,98941.40
2022-12-31T01:29:15.084Z,98933.40
2022-12-31T01:31:43.174Z,98929.60
2022-12-31T01:34:11.127Z,98924.20
2022-12-31T01:36:40.063Z,98929.40
2022-12-31T01:39:09.306Z,98933.40
2022-12-31T01:41:41.781Z,98925.20
2022-12-31T01:44:12.654Z,98920.40
2022-12-31T01:47:00.449Z,98917.20
2022-12-31T01:49:43.101Z,98919.20
2022-12-31T01:52:28.677Z,98918.80
2022-12-31T01:55:54.240Z,98915.20
2022-12-31T01:58:29.687Z,98912.20
2022-12-31T02:00:59.456Z,98924.80
2022-12-31T02:03:29.414Z,98924.00
2022-12-31T02:06:03.650Z,98908.80
2022-12-31T02:08:33.650Z,98917.60
2022-12-31T02:11:32.960Z,98912.20
2022-12-31T02:14:24.960Z,98912.40
2022-12-31T02:17:15.106Z,98901.60
2022-12-31T02:19:59.423Z,98894.20
2022-12-31T02:23:04.023Z,98891.80
2022-12-31T02:25:50.731Z,98881.40
2022-12-31T02:29:05.797Z,98892.00
2022-12-31T02:31:41.544Z,98886.40
2022-12-31T02:34:36.708Z,98883.80
2022-12-31T02:37:12.250Z,98891.40
2022-12-31T02:39:42.185Z,98887.80
2022-12-31T02:42:11.566Z,98902.00
2022-12-31T02:44:42.440Z,98905.40
2022-12-31T02:47:10.419Z,98903.60
2022-12-31T02:50:11.816Z,98910.40
2022-12-31T02:53:27.980Z,98911.60
2022-12-31T02:56:09.267Z,98911.40
2022-12-31T02:59:20.209Z,98913.20
2022-12-31T03:02:14.696Z,98919.20
2022-12-31T03:04:49.124Z,98914.60
2022-12-31T03:07:28.109Z,98913.40
2022-12-31T03:09:56.418Z,98921.60
2022-12-31T03:12:47.973Z,98922.00
2022-12-31T03:15:31.071Z,98926.20
2022-12-31T03:18:38.974Z,98918.80
2022-12-31T03:21:32.057Z,98914.20
2022-12-31T03:24:18.621Z,98917.60
2022-12-31T03:26:46.299Z,98920.80
2022-12-31T03:29:14.058Z,98919.20
2022-12-31T03:31:41.841Z,98925.40
2022-12-31T03:34:09.553Z,98937.40
2022-12-31T03:36:37.221Z,98941.80
2022-12-31T03:39:04.989Z,98930.40
2022-12-31T03:41:32.617Z,98938.40
2022-12-31T03:44:00.355Z,98940.20
2022-12-31T03:46:28.089Z,98942.00
2022-12-31T03:48:55.865Z,98933.40
2022-12-31T03:51:23.586Z,98920.80
2022-12-31T03:53:51.349Z,98924.40
2022-12-31T03:56:19.094Z,98926.60
2022-12-31T03:58:46.834Z,98933.20
2022-12-31T04:01:14.539Z,98938.80
2022-12-31T04:03:42.369Z,98942.40
2022-12-31T04:06:10.130Z,98953.20
2022-12-31T04:08:37.743Z,98953.80
2022-12-31T04:11:05.877Z,98950.40
2022-12-31T04:13:33.561Z,98952.80
2022-12-31T04:16:01.333Z,98961.20
2022-12-31T04:18:29.094Z,98961.60
2022-12-31T04:21:05.705Z,98968.60
2022-12-31T04:23:33.528Z,98974.00
2022-12-31T04:26:01.395Z,98964.20
2022-12-31T04:28:29.060Z,98974.40
2022-12-31T04:30:56.773Z,98979.60
2022-12-31T04:33:24.556Z,98990.00
2022-12-31T04:35:52.211Z,98991.60
2022-12-31T04:38:20.283Z,98999.20
2022-12-31T04:41:06.930Z,98996.00
2022-12-31T04:43:34.631Z,98996.20
2022-12-31T04:46:02.322Z,98992.80
2022-12-31T04:48:30.193Z,98986.80
2022-12-31T04:50:57.948Z,98979.80
2022-12-31T04:53:26.054Z,98980.40
2022-12-31T04:55:54.052Z,98982.00
2022-12-31T04:58:21.936Z,98983.60
2022-12-31T05:00:54.500Z,98988.20
2022-12-31T05:03:25.141Z,98982.00
2022-12-31T05:05:54.212Z,98976.60
2022-12-31T05:08:21.896Z,98968.60
2022-12-31T05:10:49.630Z,98965.40
2022-12-31T05:13:17.686Z,98957.00
2022-12-31T05:15:46.678Z,98963.20
2022-12-31T05:18:14.674Z,98966.80
2022-12-31T05:20:42.709Z,98972.80
2022-12-31T05:23:10.798Z,98976.60
2022-12-31T05:25:38.716Z,98969.60
2022-12-31T05:28:06.426Z,98955.00
2022-12-31T05:30:34.691Z,98960.00
2022-12-31T05:33:02.597Z,98968.00
2022-12-31T05:35:30.582Z,98962.40
2022-12-31T05:38:01.123Z,98964.40
2022-12-31T05:40:28.954Z,98967.80
2022-12-31T05:42:56.834Z,98972.00
2022-12-31T05:45:30.412Z,98969.00
2022-12-31T05:47:59.195Z,98969.00
2022-12-31T05:50:27.014Z,98979.40
2022-12-31T05:52:54.971Z,98976.20
2022-12-31T05:55:22.824Z,98994.80
2022-12-31T05:57:50.926Z,99008.60
2022-12-31T06:00:19.007Z,99003.40
2022-12-31T06:02:47.229Z,99010.40
2022-12-31T06:05:15.040Z,99009.20
2022-12-31T06:07:42.899Z,99006.40
2022-12-31T06:10:10.593Z,99008.40
2022-12-31T06:12:38.276Z,98999.80
2022-12-31T06:15:07.951Z,98991.60
2022-12-31T06:17:36.000Z,98984.60
2022-12-31T06:20:10.490Z,98979.40
2022-12-31T06:22:40.570Z,98982.80
2022-12-31T06:25:08.907Z,98992.40
2022-12-31T06:27:36.665Z,98982.80
2022-12-31T06:30:05.488Z,98985.80
2022-12-31T06:32:33.155Z,98987.60
2022-12-31T06:35:00.869Z,98991.20
2022-12-31T06:37:28.934Z,98988.60
2022-12-31T06:39:56.660Z,98991.00
2022-12-31T06:42:24.281Z,98992.20
2022-12-31T06:44:51.985Z,98994.80
2022-12-31T06:47:20.296Z,98993.40
2022-12-31T06:49:48.046Z,99010.80
2022-12-31T06:52:15.782Z,99001.20
2022-12-31T06:54:44.843Z,99004.00
2022-12-31T06:57:12.968Z,99004.80
2022-12-31T06:59:44.080Z,99007.60
2022-12-31T07:02:57.114Z,99008.60
2022-12-31T07:05:49.639Z,99013.00
2022-12-31T07:08:39.031Z,99005.80
2022-12-31T07:11:26.718Z,99014.00
2022-12-31T07:14:37.776Z,99025.40
2022-12-31T07:18:01.995Z,99031.20
2022-12-31T07:20:30.430Z,99031.40
2022-12-31T07:22:58.447Z,99025.00
2022-12-31T07:25:26.564Z,99029.80
2022-12-31T07:28:20.745Z,99029.00
2022-12-31T07:30:54.691Z,99027.80
2022-12-31T07:33:48.200Z,99022.20
2022-12-31T07:36:38.096Z,99039.00
2022-12-31T07:39:11.014Z,99045.40
2022-12-31T07:42:20.991Z,99040.80
2022-12-31T07:45:20.822Z,99045.20
2022-12-31T07:47:48.955Z,99052.80
2022-12-31T07:50:19.208Z,99042.00
2022-12-31T07:52:47.485Z,99040.00
2022-12-31T07:55:15.401Z,99051.80
2022-12-31T07:58:03.678Z,99047.60
2022-12-31T08:00:31.660Z,99037.20
2022-12-31T08:03:10.551Z,99028.00
2022-12-31T08:06:16.614Z,99025.20
2022-12-31T08:09:03.886Z,99019.40
2022-12-31T08:11:59.608Z,99033.60
2022-12-31T08:14:29.895Z,99036.40
2022-12-31T08:16:58.301Z,99051.40
2022-12-31T08:19:32.505Z,99063.00
2022-12-31T08:22:42.735Z,99059.20
2022-12-31T08:25:23.634Z,99051.60
2022-12-31T08:28:15.817Z,99060.80
2022-12-31T08:31:16.417Z,99066.80
2022-12-31T08:34:05.973Z,99072.60
2022-12-31T08:36:52.725Z,99073.20
2022-12-31T08:40:04.761Z,99062.00
2022-12-31T08:42:44.866Z,99072.40
2022-12-31T08:45:38.318Z,99056.20
2022-12-31T08:48:34.781Z,99055.00
2022-12-31T08:51:02.891Z,99059.80
2022-12-31T08:53:31.293Z,99058.80
2022-12-31T08:56:22.368Z,99050.20
2022-12-31T08:59:17.846Z,99059.40
2022-12-31T09:02:10.156Z,99050.40
2022-12-31T09:05:14.263Z,99058.80
2022-12-31T09:08:03.253Z,99039.60
2022-12-31T09:10:39.517Z,99032.60
2022-12-31T09:13:41.111Z,99039.40
2022-12-31T09:16:48.669Z,99040.00
2022-12-31T09:19:16.476Z,99026.00
2022-12-31T09:21:45.259Z,99027.40
2022-12-31T09:24:15.964Z,99029.60
2022-12-31T09:27:05.972Z,99026.80
2022-12-31T09:30:11.429Z,99040.40
2022-12-31T09:33:16.657Z,99063.40
2022-12-31T09:36:03.796Z,99060.80
2022-12-31T09:38:43.490Z,99068.80
2022-12-31T09:41:46.441Z,99071.00
2022-12-31T09:45:07.327Z,99055.20
2022-12-31T09:48:21.660Z,99062.20
2022-12-31T09:51:35.653Z,99057.40
2022-12-31T09:54:21.648Z,99061.40
2022-12-31T09:57:35.640Z,99057.00
2022-12-31T10:00:20.520Z,99049.40
2022-12-31T10:03:28.935Z,99046.40
2022-12-31T10:06:18.211Z,99060.00
2022-12-31T10:09:13.740Z,99049.60
2022-12-31T10:12:22.199Z,99043.40
2022-12-31T10:15:39.519Z,99040.00
2022-12-31T10:18:32.088Z,99039.20
2022-12-31T10:21:22.448Z,99043.60
2022-12-31T10:24:24.597Z,99048.80
2022-12-31T10:27:42.243Z,99054.20
2022-12-31T10:30:17.618Z,99059.40
2022-12-31T10:33:20.868Z,99060.60
2022-12-31T10:36:14.126Z,99053.60
2022-12-31T10:39:24.016Z,99060.60
2022-12-31T10:42:34.682Z,99054.40
2022-12-31T10:45:20.670Z,99058.40
2022-12-31T10:48:25.982Z,99054.80
2022-12-31T10:51:43.172Z,99044.60
2022-12-31T10:54:38.519Z,99041.40
2022-12-31T10:57:40.236Z,99041.20
2022-12-31T11:00:14.009Z,99040.80
2022-12-31T11:03:27.019Z,99029.60
2022-12-31T11:06:34.517Z,99038.40
2022-12-31T11:09:41.839Z,99033.20
2022-12-31T11:12:34.271Z,99034.20
2022-12-31T11:15:20.766Z,99038.60
2022-12-31T11:18:18.962Z,99037.80
2022-12-31T11:21:04.147Z,99035.20
2022-12-31T11:24:40.557Z,99039.20
2022-12-31T11:27:44.815Z,99029.60
2022-12-31T11:30:55.805Z,99026.00
2022-12-31T11:33:46.797Z,99029.40
2022-12-31T11:36:47.318Z,99023.60
2022-12-31T11:39:42.266Z,99025.00
2022-12-31T11:42:58.890Z,99024.00
2022-12-31T11:45:50.670Z,99010.40
2022-12-31T11:49:07.474Z,99020.80
2022-12-31T11:52:21.396Z,99024.60
2022-12-31T11:55:11.409Z,99018.00
2022-12-31T11:57:48.745Z,99010.20
2022-12-31T12:00:21.731Z,99011.60
2022-12-31T12:03:16.037Z,99008.60
2022-12-31T12:05:43.827Z,99007.80
2022-12-31T12:08:11.963Z,99002.00
2022-12-31T12:10:52.588Z,98995.00
2022-12-31T12:13:27.265Z,99004.40
2022-12-31T12:16:00.503Z,98998.80
2022-12-31T12:19:03.462Z,99005.60
2022-12-31T12:21:31.276Z,98998.00
2022-12-31T12:24:05.872Z,98998.60
2022-12-31T12:26:42.172Z,99000.40
2022-12-31T12:29:35.652Z,98992.80
2022-12-31T12:32:17.491Z,98989.80
2022-12-31T12:34:49.599Z,98990.20
2022-12-31T12:37:24.090Z,98993.40
2022-12-31T12:40:18.606Z,98985.60
2022-12-31T12:42:49.062Z,98982.20
2022-12-31T12:45:24.704Z,98980.80
2022-12-31T12:48:29.290Z,98988.20
2022-12-31T12:50:57.979Z,98979.40
2022-12-31T12:53:50.268Z,98981.60
2022-12-31T12:56:38.195Z,98984.60
2022-12-31T12:59:53.467Z,98988.40
2022-12-31T13:02:49.757Z,98986.20
2022-12-31T13:05:32.867Z,98983.60
2022-12-31T13:08:42.586Z,98984.20
2022-12-31T13:12:07.274Z,98980.40
2022-12-31T13:14:58.979Z,98981.80
2022-12-31T13:17:56.083Z,98979.00
2022-12-31T13:20:38.234Z,98978.80
2022-12-31T13:23:28.980Z,98984.60
2022-12-31T13:26:25.402Z,98982.20
2022-12-31T13:28:55.178Z,98988.80
2022-12-31T13:31:43.253Z,98994.80
2022-12-31T13:34:23.156Z,99000.40
2022-12-31T13:36:54.231Z,99006.20
2022-12-31T13:39:40.931Z,99012.60
2022-12-31T13:42:23.598Z,99020.00
2022-12-31T13:45:03.396Z,99020.00
2022-12-31T13:47:39.118Z,99027.60
2022-12-31T13:50:45.824Z,99027.00
2022-12-31T13:53:27.192Z,99021.40
2022-12-31T13:56:02.239Z,99023.20
2022-12-31T13:59:13.626Z,99023.80
2022-12-31T14:01:52.864Z,99019.00
2022-12-31T14:04:53.359Z,99022.60
2022-12-31T14:07:38.914Z,99018.80
2022-12-31T14:10:15.152Z,99020.20
2022-12-31T14:12:56.324Z,99031.80
2022-12-31T14:15:46.200Z,99034.60
2022-12-31T14:18:23.750Z,99027.20
2022-12-31T14:21:01.698Z,99030.00
2022-12-31T14:23:56.458Z,99026.80
2022-12-31T14:26:52.883Z,99031.60
2022-12-31T14:29:58.381Z,99038.80
2022-12-31T14:32:35.168Z,99035.20
2022-12-31T14:35:25.176Z,99036.60
2022-12-31T14:38:21.820Z,99041.00
2022-12-31T14:41:17.763Z,99042.60
2022-12-31T14:44:02.100Z,99040.60
2022-12-31T14:47:27.416Z,99038.60
2022-12-31T14:50:17.994Z,99038.60
2022-12-31T14:53:15.949Z,99049.40
2022-12-31T14:55:43.700Z,99045.60
2022-12-31T14:58:59.051Z,99044.00
2022-12-31T15:01:27.775Z,99040.00
2022-12-31T15:03:58.165Z,99039.20
2022-12-31T15:06:52.379Z,99049.40
2022-12-31T15:09:35.328Z,99047.60
2022-12-31T15:12:31.975Z,99046.80
2022-12-31T15:15:34.974Z,99052.00
2022-12-31T15:18:22.052Z,99051.80
2022-12-31T15:21:22.267Z,99046.20
2022-12-31T15:23:50.344Z,99060.40
2022-12-31T15:26:31.286Z,99056.20
2022-12-31T15:29:18.838Z,99058.60
2022-12-31T15:31:48.269Z,99063.80
2022-12-31T15:34:36.412Z,99071.60
2022-12-31T15:37:27.649Z,99068.40
2022-12-31T15:40:19.735Z,99070.00
2022-12-31T15:43:37.369Z,99073.20
2022-12-31T15:46:18.666Z,99081.00
2022-12-31T15:49:20.208Z,99087.40
2022-12-31T15:52:01.231Z,99086.60
2022-12-31T15:54:44.274Z,99077.60
2022-12-31T15:57:41.524Z,99084.40
2022-12-31T16:00:20.081Z,99091.20
2022-12-31T16:02:52.613Z,99092.60
2022-12-31T16:05:27.240Z,99094.40
2022-12-31T16:07:59.061Z,99096.00
2022-12-31T16:10:33.028Z,99096.60
2022-12-31T16:13:00.934Z,99096.40
2022-12-31T16:15:32.847Z,99096.20
2022-12-31T16:18:20.650Z,99084.20
2022-12-31T16:20:52.072Z,99087.20
2022-12-31T16:23:25.234Z,99086.00
2022-12-31T16:25:58.490Z,99091.40
2022-12-31T16:28:32.819Z,99093.00
2022-12-31T16:31:08.573Z,99089.40
2022-12-31T16:33:36.344Z,99097.40
2022-12-31T16:36:05.305Z,99093.40
2022-12-31T16:38:36.631Z,99100.80
2022-12-31T16:41:24.365Z,99096.60
2022-12-31T16:43:52.113Z,99099.60
2022-12-31T16:46:27.677Z,99094.80
2022-12-31T16:49:00.863Z,99107.00
2022-12-31T16:51:35.993Z,99119.40
2022-12-31T16:54:05.011Z,99120.00
2022-12-31T16:56:42.806Z,99119.40
2022-12-31T16:59:35.252Z,99112.00
2022-12-31T17:02:12.896Z,99116.60
2022-12-31T17:04:46.056Z,99117.20
2022-12-31T17:07:32.721Z,99107.20
2022-12-31T17:10:06.278Z,99107.60
2022-12-31T17:13:32.059Z,99113.00
2022-12-31T17:16:01.733Z,99110.40
2022-12-31T17:18:38.592Z,99110.00
2022-12-31T17:21:10.397Z,99120.20
2022-12-31T17:23:40.231Z,99119.60
2022-12-31T17:26:23.755Z,99125.40
2022-12-31T17:28:55.271Z,99118.60
2022-12-31T17:31:37.581Z,99129.80
2022-12-31T17:34:14.467Z,99111.00
2022-12-31T17:37:11.698Z,99130.60
2022-12-31T17:39:46.641Z,99132.20
2022-12-31T17:42:26.587Z,99127.60
2022-12-31T17:45:00.249Z,99131.00
2022-12-31T17:47:39.009Z,99132.00
2022-12-31T17:50:25.571Z,99123.20
2022-12-31T17:53:05.602Z,99130.00
2022-12-31T17:55:33.658Z,99136.60
2022-12-31T17:58:06.223Z,99144.20
2022-12-31T18:00:36.954Z,99139.20
2022-12-31T18:03:04.984Z,99141.20
2022-12-31T18:05:32.865Z,99138.80
2022-12-31T18:08:00.528Z,99136.20
2022-12-31T18:10:35.293Z,99139.40
2022-12-31T18:13:07.739Z,99147.00
2022-12-31T18:15:35.395Z,99147.20
2022-12-31T18:18:26.154Z,99148.80
2022-12-31T18:21:02.750Z,99148.20
2022-12-31T18:23:48.201Z,99154.00
2022-12-31T18:26:19.609Z,99153.20
2022-12-31T18:28:48.676Z,99151.40
2022-12-31T18:31:27.179Z,99152.20
2022-12-31T18:33:58.391Z,99145.40
2022-12-31T18:36:28.519Z,99142.40
2022-12-31T18:38:56.300Z,99150.00
2022-12-31T18:41:34.360Z,99152.20
2022-12-31T18:44:02.084Z,99150.40
2022-12-31T18:46:30.331Z,99150.80
2022-12-31T18:48:58.215Z,99146.00
2022-12-31T18:51:31.721Z,99150.00
2022-12-31T18:54:01.373Z,99149.80
2022-12-31T18:56:29.240Z,99152.60
2022-12-31T18:58:57.175Z,99150.60
2022-12-31T19:01:31.744Z,99155.80
2022-12-31T19:04:13.864Z,99151.40
2022-12-31T19:06:43.931Z,99153.40
2022-12-31T19:09:43.482Z,99153.20
2022-12-31T19:12:02.996Z,99157.40
2022-12-31T19:14:30.840Z,99155.00
2022-12-31T19:19:26.389Z,99161.40
2022-12-31T19:21:54.261Z,99160.40
2022-12-31T19:24:27.446Z,99167.60
2022-12-31T19:26:55.570Z,99163.80
2022-12-31T19:29:26.822Z,99163.20
2022-12-31T19:31:54.778Z,99159.00
2022-12-31T19:34:22.587Z,99159.40
2022-12-31T19:36:50.334Z,99176.40
2022-12-31T19:39:21.132Z,99183.00
2022-12-31T19:41:56.435Z,99181.80
2022-12-31T19:44:26.645Z,99183.20
2022-12-31T19:46:54.496Z,99178.40
2022-12-31T19:49:22.202Z,99173.20
2022-12-31T19:51:49.900Z,99176.80
2022-12-31T19:54:17.570Z,99173.20
2022-12-31T19:56:45.212Z,99175.60
2022-12-31T19:59:12.891Z,99168.80
2022-12-31T20:01:40.777Z,99162.60
2022-12-31T20:04:08.708Z,99164.60
2022-12-31T20:06:36.331Z,99160.80
2022-12-31T20:09:04.044Z,99157.40
2022-12-31T20:11:31.842Z,99159.20
2022-12-31T20:13:59.573Z,99155.60
2022-12-31T20:16:29.696Z,99149.40
2022-12-31T20:18:57.933Z,99153.20
2022-12-31T20:21:28.832Z,99150.00
2022-12-31T20:23:57.520Z,99162.40
2022-12-31T20:26:26.247Z,99165.00
2022-12-31T20:28:54.042Z,99164.40
2022-12-31T20:31:25.705Z,99157.60
2022-12-31T20:33:55.209Z,99165.40
2022-12-31T20:36:24.469Z,99160.40
2022-12-31T20:38:52.392Z,99158.20
2022-12-31T20:41:22.908Z,99160.20
2022-12-31T20:43:51.374Z,99168.40
2022-12-31T20:46:24.763Z,99163.80
2022-12-31T20:48:56.348Z,99169.20
2022-12-31T20:51:26.681Z,99169.00
2022-12-31T20:54:10.892Z,99164.60
2022-12-31T20:56:41.468Z,99163.40
2022-12-31T20:59:10.097Z,99158.40
2022-12-31T21:02:11.819Z,99153.60
2022-12-31T21:04:26.477Z,99160.60
2022-12-31T21:06:54.510Z,99168.60
2022-12-31T21:09:22.366Z,99165.80
2022-12-31T21:12:08.898Z,99166.00
2022-12-31T21:14:42.800Z,99166.20
2022-12-31T21:17:12.426Z,99160.60
2022-12-31T21:19:40.199Z,99163.60
2022-12-31T21:22:07.934Z,99176.20
2022-12-31T21:24:35.603Z,99179.80
2022-12-31T21:27:03.537Z,99179.40
2022-12-31T21:29:34.550Z,99172.60
2022-12-31T21:32:03.931Z,99175.00
2022-12-31T21:34:31.744Z,99167.80
2022-12-31T21:36:59.549Z,99182.60
2022-12-31T21:39:27.243Z,99174.80
2022-12-31T21:41:55.426Z,99180.80
2022-12-31T21:44:25.913Z,99177.80
2022-12-31T21:47:33.731Z,99184.40
2022-12-31T21:49:46.560Z,99186.20
2022-12-31T21:52:28.470Z,99188.00
2022-12-31T21:55:18.046Z,99196.60
2022-12-31T21:58:23.984Z,99185.60
2022-12-31T22:00:54.960Z,99195.60
2022-12-31T22:03:27.684Z,99189.60
2022-12-31T22:06:13.569Z,99190.60
2022-12-31T22:08:44.088Z,99190.40
2022-12-31T22:11:13.914Z,99190.80
2022-12-31T22:13:42.832Z,99188.00
2022-12-31T22:16:12.671Z,99201.60
2022-12-31T22:18:44.008Z,99191.20
2022-12-31T22:21:19.965Z,99189.80
2022-12-31T22:23:51.937Z,99196.60
2022-12-31T22:26:26.584Z,99204.20
2022-12-31T22:28:59.187Z,99196.20
2022-12-31T22:31:30.541Z,99201.20
2022-12-31T22:33:59.336Z,99204.80
2022-12-31T22:36:27.112Z,99195.40
2022-12-31T22:38:58.334Z,99191.20
2022-12-31T22:41:27.627Z,99191.40
2022-12-31T22:44:03.723Z,99183.00
2022-12-31T22:46:34.549Z,99184.60
2022-12-31T22:49:04.396Z,99185.40
2022-12-31T22:51:55.742Z,99181.40
2022-12-31T22:54:20.601Z,99181.40
2022-12-31T22:56:48.345Z,99181.20
2022-12-31T22:59:16.018Z,99181.80
2022-12-31T23:01:43.940Z,99186.80
2022-12-31T23:04:12.221Z,99181.60
2022-12-31T23:06:46.088Z,99187.60
2022-12-31T23:09:35.954Z,99183.40
2022-12-31T23:12:07.351Z,99172.60
2022-12-31T23:14:55.214Z,99178.40
2022-12-31T23:17:45.349Z,99179.00
2022-12-31T23:20:39.772Z,99190.20
2022-12-31T23:23:14.749Z,99198.60
2022-12-31T23:25:47.578Z,99198.60
2022-12-31T23:28:22.133Z,99204.60
2022-12-31T23:30:53.881Z,99196.40
2022-12-31T23:33:25.473Z,99199.00
2022-12-31T23:36:07.505Z,99198.40
2022-12-31T23:38:35.375Z,99192.60
2022-12-31T23:41:13.336Z,99194.20
2022-12-31T23:43:41.210Z,99193.80
2022-12-31T23:46:08.934Z,99194.60
2022-12-31T23:48:36.625Z,99185.20
2022-12-31T23:51:05.304Z,99186.80
2022-12-31T23:53:33.014Z,99192.20
2022-12-31T23:56:23.286Z,99192.60
2022-12-31T23:58:57.032Z,99189.40
